Time;durP1;ratioP1;P1;durP2;ratioP2;P2;SDS_P1;SDS_P2;PMS_P1;PMS_P2;Temp;Humidity;BMP_temperature;BMP_pressure;BME280_temperature;BME280_humidity;BME280_pressure;Samples;Min_cycle;Max_cycle;Signal;HPM_P1;HPM_P2
2022/01/11 00:01:45;;;;;;;23.95;12.18;;;;;;;;;;4919146;29;20516;-69
2022/01/11 00:04:12;;;;;;;32.85;15.35;;;;;;;;;;4944569;28;20039;-70
2022/01/11 00:09:19;;;;;;;29.60;13.05;;;;;;;;;;4945722;28;20106;-69
2022/01/11 00:11:46;;;;;;;16.52;8.68;;;;;;;;;;4938247;29;20035;-71
2022/01/11 00:14:11;;;;;;;29.80;15.00;;;;;;;;;;4944423;28;20217;-71
2022/01/11 00:16:36;;;;;;;34.35;13.90;;;;;;;;;;4937772;28;20036;-75
2022/01/11 00:19:06;;;;;;;35.83;14.32;;;;;;;;;;4944757;28;20158;-68
2022/01/11 00:21:33;;;;;;;32.03;13.05;;;;;;;;;;4932314;29;20031;-71
2022/01/11 00:26:42;;;;;;;30.02;15.00;;;;;;;;;;4939406;28;20046;-71
2022/01/11 00:29:07;;;;;;;33.35;15.90;;;;;;;;;;4942417;29;20039;-68
2022/01/11 00:31:35;;;;;;;35.65;14.85;;;;;;;;;;4932636;29;20393;-69
2022/01/11 00:34:02;;;;;;;27.60;12.68;;;;;;;;;;4942922;28;20042;-72
2022/01/11 00:36:40;;;;;;;29.40;13.18;;;;;;;;;;4940730;28;20036;-70
2022/01/11 00:39:06;;;;;;;33.38;14.60;;;;;;;;;;4952078;28;20455;-73
2022/01/11 00:41:31;;;;;;;25.15;12.40;;;;;;;;;;4937164;29;20044;-69
2022/01/11 00:43:57;;;;;;;37.90;14.90;;;;;;;;;;4943375;29;20094;-69
2022/01/11 00:46:22;;;;;;;34.53;16.02;;;;;;;;;;4938662;28;20806;-72
2022/01/11 00:48:48;;;;;;;29.50;13.85;;;;;;;;;;4933223;28;20046;-72
2022/01/11 00:51:13;;;;;;;27.98;13.05;;;;;;;;;;4940460;29;20047;-69
2022/01/11 00:53:40;;;;;;;30.23;13.70;;;;;;;;;;4937028;29;20035;-71
2022/01/11 00:56:07;;;;;;;25.75;12.73;;;;;;;;;;4941219;28;20035;-74
2022/01/11 00:58:33;;;;;;;30.15;13.43;;;;;;;;;;4942691;28;20039;-73
2022/01/11 01:00:58;;;;;;;32.60;14.05;;;;;;;;;;4952879;28;20417;-71
2022/01/11 01:03:24;;;;;;;27.27;14.05;;;;;;;;;;4937225;28;20040;-70
2022/01/11 01:05:50;;;;;;;30.88;14.25;;;;;;;;;;4939385;28;20122;-71
2022/01/11 01:08:18;;;;;;;29.20;13.10;;;;;;;;;;4952190;28;20122;-72
2022/01/11 01:10:46;;;;;;;23.65;12.90;;;;;;;;;;4927241;28;20043;-69
2022/01/11 01:13:20;;;;;;;21.35;11.07;;;;;;;;;;4950248;28;20040;-69
2022/01/11 01:15:51;;;;;;;32.83;13.65;;;;;;;;;;4950472;28;20035;-73
2022/01/11 01:18:27;;;;;;;26.23;13.00;;;;;;;;;;4949605;28;20223;-69
2022/01/11 01:20:55;;;;;;;25.42;13.20;;;;;;;;;;4953853;28;20054;-74
2022/01/11 01:23:21;;;;;;;28.70;12.45;;;;;;;;;;4949241;28;20039;-70
2022/01/11 01:25:47;;;;;;;30.48;14.60;;;;;;;;;;4934540;29;20077;-68
2022/01/11 01:28:14;;;;;;;30.45;14.93;;;;;;;;;;4933872;29;20490;-69
2022/01/11 01:30:40;;;;;;;27.63;14.00;;;;;;;;;;4948127;28;20046;-72
2022/01/11 01:33:06;;;;;;;36.10;16.75;;;;;;;;;;4956765;28;20043;-69
2022/01/11 01:35:39;;;;;;;29.98;13.63;;;;;;;;;;4937705;28;20031;-70
2022/01/11 01:38:06;;;;;;;35.50;15.32;;;;;;;;;;4935786;29;20544;-74
2022/01/11 01:40:37;;;;;;;28.27;12.82;;;;;;;;;;4927328;28;20416;-72
2022/01/11 01:43:07;;;;;;;31.02;14.57;;;;;;;;;;4936802;28;20267;-69
2022/01/11 01:45:33;;;;;;;29.80;15.65;;;;;;;;;;4929392;28;20471;-73
2022/01/11 01:47:58;;;;;;;33.90;15.15;;;;;;;;;;4940799;29;20047;-69
2022/01/11 01:50:26;;;;;;;33.75;15.15;;;;;;;;;;4956958;28;20050;-71
2022/01/11 01:52:53;;;;;;;28.95;14.57;;;;;;;;;;4953874;28;20043;-67
2022/01/11 01:55:18;;;;;;;40.50;16.75;;;;;;;;;;4936843;28;20039;-72
2022/01/11 01:57:44;;;;;;;32.60;14.35;;;;;;;;;;4923832;29;20095;-69
2022/01/11 02:00:12;;;;;;;31.55;13.65;;;;;;;;;;4936517;29;20035;-70
2022/01/11 02:02:39;;;;;;;31.27;14.35;;;;;;;;;;4933069;28;20046;-69
2022/01/11 02:05:06;;;;;;;24.95;12.73;;;;;;;;;;4928267;28;20039;-69
2022/01/11 02:07:35;;;;;;;25.95;13.65;;;;;;;;;;4951336;28;20993;-72
2022/01/11 02:10:03;;;;;;;28.67;13.55;;;;;;;;;;4943838;29;20035;-72
2022/01/11 02:12:29;;;;;;;29.83;14.75;;;;;;;;;;4956069;28;20102;-69
2022/01/11 02:14:54;;;;;;;27.83;13.23;;;;;;;;;;4931957;28;20046;-71
2022/01/11 02:17:20;;;;;;;40.28;16.30;;;;;;;;;;4933952;28;20510;-68
2022/01/11 02:19:46;;;;;;;28.90;14.60;;;;;;;;;;4954528;28;20031;-69
2022/01/11 02:22:11;;;;;;;27.13;13.48;;;;;;;;;;4947874;28;20042;-68
2022/01/11 02:24:37;;;;;;;24.60;12.98;;;;;;;;;;4931784;28;20047;-70
2022/01/11 02:27:05;;;;;;;33.20;14.90;;;;;;;;;;4943541;28;20062;-72
2022/01/11 02:29:32;;;;;;;29.67;13.73;;;;;;;;;;4958545;28;20039;-68
2022/01/11 02:31:57;;;;;;;29.63;13.50;;;;;;;;;;4950662;28;20039;-68
2022/01/11 02:34:23;;;;;;;35.28;14.38;;;;;;;;;;4926355;29;20059;-69
2022/01/11 02:37:07;;;;;;;37.78;15.85;;;;;;;;;;4940185;28;20067;-70
2022/01/11 02:39:39;;;;;;;;;;;;;;;;;;4958524;28;20116;-69
2022/01/11 02:42:17;;;;;;;25.98;13.05;;;;;;;;;;4957736;28;19918;-70
2022/01/11 02:44:43;;;;;;;27.05;13.50;;;;;;;;;;4941727;29;20039;-71
2022/01/11 02:47:15;;;;;;;22.88;12.50;;;;;;;;;;4935703;28;20036;-69
2022/01/11 02:49:41;;;;;;;22.25;12.82;;;;;;;;;;4941490;28;20050;-69
2022/01/11 02:52:14;;;;;;;28.10;12.57;;;;;;;;;;4941380;29;20067;-70
2022/01/11 02:54:44;;;;;;;27.88;13.85;;;;;;;;;;4934455;29;20094;-70
2022/01/11 02:57:17;;;;;;;23.20;12.30;;;;;;;;;;4937975;28;20028;-69
2022/01/11 02:59:43;;;;;;;25.60;12.70;;;;;;;;;;4949512;28;20049;-69
2022/01/11 03:02:10;;;;;;;29.42;13.93;;;;;;;;;;4929033;29;20028;-68
2022/01/11 03:04:37;;;;;;;24.85;12.45;;;;;;;;;;4925103;29;20472;-69
2022/01/11 03:07:03;;;;;;;26.52;12.27;;;;;;;;;;4910815;29;20039;-69
2022/01/11 03:09:44;;;;;;;29.10;13.68;;;;;;;;;;4940101;28;20031;-69
2022/01/11 03:12:11;;;;;;;26.02;13.20;;;;;;;;;;4935509;28;20036;-66
2022/01/11 03:14:37;;;;;;;27.00;13.93;;;;;;;;;;4950653;28;20066;-69
2022/01/11 03:17:05;;;;;;;38.72;16.08;;;;;;;;;;4935555;29;20071;-69
2022/01/11 03:19:30;;;;;;;30.90;14.35;;;;;;;;;;4956758;28;20125;-69
2022/01/11 03:21:56;;;;;;;31.55;14.80;;;;;;;;;;4941583;28;21003;-69
2022/01/11 03:24:21;;;;;;;29.58;13.25;;;;;;;;;;4941556;29;20518;-69
2022/01/11 03:26:48;;;;;;;31.45;13.98;;;;;;;;;;4929358;29;20036;-69
2022/01/11 03:29:14;;;;;;;27.38;12.88;;;;;;;;;;4957632;28;20031;-69
2022/01/11 03:31:39;;;;;;;30.35;13.55;;;;;;;;;;4955761;28;20042;-69
2022/01/11 03:34:05;;;;;;;25.48;13.82;;;;;;;;;;4957909;28;20049;-69
2022/01/11 03:36:30;;;;;;;24.85;13.75;;;;;;;;;;4942157;29;20922;-69
2022/01/11 03:38:55;;;;;;;31.75;14.45;;;;;;;;;;4907094;29;20600;-69
2022/01/11 03:41:22;;;;;;;28.83;13.13;;;;;;;;;;4940311;28;20066;-71
2022/01/11 03:43:47;;;;;;;25.17;12.75;;;;;;;;;;4941379;28;20159;-71
2022/01/11 03:46:17;;;;;;;33.33;15.13;;;;;;;;;;4939313;29;20086;-68
2022/01/11 03:48:43;;;;;;;30.42;13.70;;;;;;;;;;4957270;28;20047;-69
2022/01/11 03:51:09;;;;;;;30.35;14.57;;;;;;;;;;4942355;28;20472;-69
2022/01/11 03:53:55;;;;;;;28.52;14.52;;;;;;;;;;4945735;28;20035;-71
2022/01/11 03:56:23;;;;;;;32.88;15.38;;;;;;;;;;4956596;28;20691;-69
2022/01/11 03:58:56;;;;;;;28.73;14.40;;;;;;;;;;4941073;29;20035;-69
2022/01/11 04:01:22;;;;;;;29.33;14.95;;;;;;;;;;4940521;28;20047;-70
2022/01/11 04:03:48;;;;;;;27.35;13.57;;;;;;;;;;4955578;28;20094;-69
2022/01/11 04:06:16;;;;;;;23.50;13.20;;;;;;;;;;4957076;28;20035;-69
2022/01/11 04:08:43;;;;;;;24.15;13.10;;;;;;;;;;4940831;29;20540;-69
2022/01/11 04:11:11;;;;;;;24.17;12.73;;;;;;;;;;4942051;28;20114;-69
2022/01/11 04:13:38;;;;;;;27.10;13.38;;;;;;;;;;4958941;28;20390;-69
2022/01/11 04:16:04;;;;;;;22.02;12.38;;;;;;;;;;4933987;28;20050;-69
2022/01/11 04:18:31;;;;;;;25.95;13.65;;;;;;;;;;4953440;28;20050;-69
2022/01/11 04:20:57;;;;;;;27.88;13.82;;;;;;;;;;4944302;29;20420;-70
2022/01/11 04:23:23;;;;;;;27.38;12.82;;;;;;;;;;4925227;28;20047;-69
2022/01/11 04:25:49;;;;;;;27.33;13.05;;;;;;;;;;4941988;28;20540;-69
2022/01/11 04:28:16;;;;;;;24.40;11.25;;;;;;;;;;4944514;28;20504;-69
2022/01/11 04:30:42;;;;;;;21.88;12.20;;;;;;;;;;4941952;29;20420;-69
2022/01/11 04:33:10;;;;;;;18.35;11.00;;;;;;;;;;4958750;28;20039;-70
2022/01/11 04:35:35;;;;;;;25.80;12.65;;;;;;;;;;4943366;28;20047;-70
2022/01/11 04:38:01;;;;;;;29.83;13.25;;;;;;;;;;4928360;29;20448;-70
2022/01/11 04:40:28;;;;;;;26.27;13.50;;;;;;;;;;4943880;29;20035;-69
2022/01/11 04:42:54;;;;;;;25.13;13.02;;;;;;;;;;4943975;29;20455;-69
2022/01/11 04:45:20;;;;;;;34.13;14.55;;;;;;;;;;4941966;29;20050;-70
2022/01/11 04:47:52;;;;;;;33.25;16.00;;;;;;;;;;4942535;28;20089;-69
2022/01/11 04:50:18;;;;;;;37.03;17.85;;;;;;;;;;4935891;28;20537;-69
2022/01/11 04:52:44;;;;;;;32.85;15.68;;;;;;;;;;4959690;28;20039;-69
2022/01/11 04:55:11;;;;;;;32.97;15.13;;;;;;;;;;4944003;29;20031;-69
2022/01/11 04:57:38;;;;;;;32.25;15.82;;;;;;;;;;4925929;28;20094;-69
2022/01/11 05:00:04;;;;;;;32.25;15.15;;;;;;;;;;4943996;28;20051;-70
2022/01/11 05:02:30;;;;;;;27.02;14.25;;;;;;;;;;4957703;28;20043;-69
2022/01/11 05:04:55;;;;;;;26.25;14.27;;;;;;;;;;4943217;29;20101;-69
2022/01/11 05:07:21;;;;;;;30.45;15.02;;;;;;;;;;4943499;29;20408;-69
2022/01/11 05:09:49;;;;;;;35.42;15.95;;;;;;;;;;4957751;28;20130;-69
2022/01/11 05:12:14;;;;;;;27.77;14.50;;;;;;;;;;4943672;28;20036;-69
2022/01/11 05:14:41;;;;;;;25.30;13.82;;;;;;;;;;4943438;29;20035;-69
2022/01/11 05:17:06;;;;;;;27.40;14.23;;;;;;;;;;4957561;28;20034;-69
2022/01/11 05:19:33;;;;;;;24.73;13.00;;;;;;;;;;4942156;28;20035;-69
2022/01/11 05:21:58;;;;;;;24.40;12.98;;;;;;;;;;4943004;28;20381;-72
2022/01/11 05:24:24;;;;;;;27.88;13.65;;;;;;;;;;4958919;28;20061;-68
2022/01/11 05:26:53;;;;;;;30.27;13.80;;;;;;;;;;4959145;28;20114;-69
2022/01/11 05:29:19;;;;;;;28.70;12.82;;;;;;;;;;4944357;28;20142;-69
2022/01/11 05:31:45;;;;;;;24.40;12.13;;;;;;;;;;4957506;28;20518;-69
2022/01/11 05:34:10;;;;;;;28.48;13.43;;;;;;;;;;4959057;28;20146;-69
2022/01/11 05:36:36;;;;;;;31.50;15.35;;;;;;;;;;4955446;28;20091;-71
2022/01/11 05:39:06;;;;;;;30.55;14.80;;;;;;;;;;4947524;28;20130;-70
2022/01/11 05:41:32;;;;;;;32.00;14.30;;;;;;;;;;4946758;28;20151;-72
2022/01/11 05:43:59;;;;;;;25.25;13.23;;;;;;;;;;4925005;28;20039;-69
2022/01/11 05:46:25;;;;;;;36.30;15.05;;;;;;;;;;4956069;28;20047;-71
2022/01/11 05:48:50;;;;;;;26.02;13.63;;;;;;;;;;4942873;29;20039;-69
2022/01/11 05:51:17;;;;;;;27.45;14.50;;;;;;;;;;4958826;28;20188;-71
2022/01/11 05:53:43;;;;;;;25.83;12.93;;;;;;;;;;4948248;28;20143;-71
2022/01/11 05:56:09;;;;;;;29.30;13.77;;;;;;;;;;4944906;28;20115;-72
2022/01/11 05:58:36;;;;;;;27.67;13.38;;;;;;;;;;4946904;28;20027;-69
2022/01/11 06:01:03;;;;;;;22.63;12.70;;;;;;;;;;4946224;28;20489;-74
2022/01/11 06:03:28;;;;;;;20.65;12.32;;;;;;;;;;4926862;28;20094;-74
2022/01/11 06:05:54;;;;;;;27.27;12.75;;;;;;;;;;4933309;28;20044;-70
2022/01/11 06:08:20;;;;;;;22.70;12.38;;;;;;;;;;4939037;29;20492;-69
2022/01/11 06:10:47;;;;;;;24.45;12.75;;;;;;;;;;4954401;28;20692;-71
2022/01/11 06:13:14;;;;;;;25.17;13.07;;;;;;;;;;4950153;28;20131;-77
2022/01/11 06:15:41;;;;;;;24.48;12.40;;;;;;;;;;4948421;28;20031;-69
2022/01/11 06:18:08;;;;;;;20.20;12.00;;;;;;;;;;4937768;28;20035;-69
2022/01/11 06:20:41;;;;;;;23.77;11.88;;;;;;;;;;4934561;29;20038;-70
2022/01/11 06:23:07;;;;;;;23.58;12.05;;;;;;;;;;4956450;28;20035;-70
2022/01/11 06:25:32;;;;;;;21.60;11.88;;;;;;;;;;4938836;28;20042;-70
2022/01/11 06:27:58;;;;;;;19.98;11.00;;;;;;;;;;4956281;28;20042;-70
2022/01/11 06:30:24;;;;;;;23.05;11.45;;;;;;;;;;4930396;28;20062;-71
2022/01/11 06:32:49;;;;;;;20.08;11.25;;;;;;;;;;4941752;29;20097;-71
2022/01/11 06:35:17;;;;;;;22.83;12.05;;;;;;;;;;4956215;28;20050;-71
2022/01/11 06:37:46;;;;;;;24.05;12.35;;;;;;;;;;4950261;28;20515;-71
2022/01/11 06:40:16;;;;;;;20.67;12.05;;;;;;;;;;4942149;28;20035;-71
2022/01/11 06:42:43;;;;;;;22.80;12.60;;;;;;;;;;4950234;28;20054;-70
2022/01/11 06:45:11;;;;;;;31.10;13.75;;;;;;;;;;4928550;29;20050;-72
2022/01/11 06:47:37;;;;;;;27.70;12.77;;;;;;;;;;4925601;28;20074;-72
2022/01/11 06:50:03;;;;;;;31.85;14.98;;;;;;;;;;4935898;28;20055;-70
2022/01/11 06:52:30;;;;;;;32.00;14.65;;;;;;;;;;4941388;29;20511;-70
2022/01/11 06:54:56;;;;;;;25.60;14.25;;;;;;;;;;4955494;28;20043;-71
2022/01/11 06:57:21;;;;;;;31.48;14.07;;;;;;;;;;4925825;29;20070;-71
2022/01/11 06:59:49;;;;;;;27.90;13.50;;;;;;;;;;4946190;28;20043;-72
2022/01/11 07:02:19;;;;;;;27.60;13.75;;;;;;;;;;4931721;28;20043;-71
2022/01/11 07:04:56;;;;;;;26.25;12.93;;;;;;;;;;4949399;28;20405;-71
2022/01/11 07:07:22;;;;;;;24.88;12.80;;;;;;;;;;4956959;28;20039;-71
2022/01/11 07:09:48;;;;;;;27.95;13.63;;;;;;;;;;4943219;28;20046;-71
2022/01/11 07:12:17;;;;;;;27.33;14.23;;;;;;;;;;4934322;28;20047;-71
2022/01/11 07:14:43;;;;;;;34.58;15.77;;;;;;;;;;4946080;28;20035;-71
2022/01/11 07:17:09;;;;;;;31.95;14.90;;;;;;;;;;4922537;29;20864;-71
2022/01/11 07:19:35;;;;;;;42.00;15.48;;;;;;;;;;4924591;29;20062;-71
2022/01/11 07:22:06;;;;;;;29.23;15.40;;;;;;;;;;4939262;28;20036;-72
2022/01/11 07:24:34;;;;;;;33.78;15.18;;;;;;;;;;4940860;28;20051;-71
2022/01/11 07:27:00;;;;;;;33.08;14.88;;;;;;;;;;4957331;28;20150;-70
2022/01/11 07:29:26;;;;;;;30.05;15.07;;;;;;;;;;4956629;28;20035;-71
2022/01/11 07:31:52;;;;;;;29.67;15.55;;;;;;;;;;4947823;28;20389;-71
2022/01/11 07:34:22;;;;;;;34.47;16.35;;;;;;;;;;4925688;28;20032;-71
2022/01/11 07:36:49;;;;;;;28.88;13.32;;;;;;;;;;4930729;29;20036;-72
2022/01/11 07:39:15;;;;;;;29.95;15.65;;;;;;;;;;4940940;29;20141;-71
2022/01/11 07:41:41;;;;;;;28.92;15.18;;;;;;;;;;4941336;29;20837;-71
2022/01/11 07:44:11;;;;;;;26.83;13.30;;;;;;;;;;4935775;28;20415;-71
2022/01/11 07:46:40;;;;;;;26.67;13.23;;;;;;;;;;4928193;28;20031;-71
2022/01/11 07:49:09;;;;;;;27.15;13.73;;;;;;;;;;4936672;29;20043;-72
2022/01/11 07:51:35;;;;;;;33.28;16.17;;;;;;;;;;4954607;28;20049;-73
2022/01/11 07:54:06;;;;;;;31.15;15.63;;;;;;;;;;4953833;28;20043;-71
2022/01/11 07:56:32;;;;;;;30.88;16.33;;;;;;;;;;4920013;28;20038;-73
2022/01/11 07:58:58;;;;;;;30.77;15.75;;;;;;;;;;4919590;29;20027;-73
2022/01/11 08:01:28;;;;;;;27.38;15.07;;;;;;;;;;4940928;28;20093;-72
2022/01/11 08:03:53;;;;;;;28.50;15.48;;;;;;;;;;4941614;28;20251;-72
2022/01/11 08:06:26;;;;;;;27.73;16.23;;;;;;;;;;4930143;28;20130;-73
2022/01/11 08:09:00;;;;;;;29.77;13.90;;;;;;;;;;4925959;29;20079;-74
2022/01/11 08:11:27;;;;;;;33.03;16.27;;;;;;;;;;4960205;28;20065;-73
2022/01/11 08:13:55;;;;;;;32.58;15.73;;;;;;;;;;4934839;29;20050;-71
2022/01/11 08:16:22;;;;;;;26.88;13.75;;;;;;;;;;4935765;28;20036;-73
2022/01/11 08:18:49;;;;;;;24.63;13.73;;;;;;;;;;4923084;29;20055;-71
2022/01/11 08:21:14;;;;;;;29.48;14.75;;;;;;;;;;4937610;29;20073;-72
2022/01/11 08:23:40;;;;;;;29.70;14.25;;;;;;;;;;4928584;29;20202;-73
2022/01/11 08:26:06;;;;;;;25.63;13.80;;;;;;;;;;4958056;28;20055;-71
2022/01/11 08:28:32;;;;;;;30.63;15.63;;;;;;;;;;4945901;28;20077;-71
2022/01/11 08:31:02;;;;;;;27.75;14.40;;;;;;;;;;4945235;28;20032;-72
2022/01/11 08:33:32;;;;;;;28.52;14.95;;;;;;;;;;4943942;28;20036;-72
2022/01/11 08:35:59;;;;;;;24.45;12.98;;;;;;;;;;4931367;29;20560;-73
2022/01/11 08:38:26;;;;;;;27.92;15.05;;;;;;;;;;4941784;28;20703;-73
2022/01/11 08:40:53;;;;;;;28.38;14.55;;;;;;;;;;4958598;28;20899;-73
2022/01/11 08:43:20;;;;;;;27.35;15.60;;;;;;;;;;4927643;29;20031;-72
2022/01/11 08:45:45;;;;;;;27.40;14.88;;;;;;;;;;4941221;29;20519;-72
2022/01/11 08:48:14;;;;;;;26.35;15.20;;;;;;;;;;4928550;28;20063;-73
2022/01/11 08:51:00;;;;;;;29.00;14.00;;;;;;;;;;4939567;28;20049;-73
2022/01/11 08:53:29;;;;;;;28.80;15.77;;;;;;;;;;4957778;28;20050;-73
2022/01/11 08:55:57;;;;;;;27.10;14.50;;;;;;;;;;4959625;28;20635;-74
2022/01/11 08:58:23;;;;;;;24.50;13.82;;;;;;;;;;4942730;28;20078;-73
2022/01/11 09:00:50;;;;;;;24.70;13.32;;;;;;;;;;4933156;28;20039;-74
2022/01/11 09:03:16;;;;;;;22.45;12.98;;;;;;;;;;4928832;28;20047;-72
2022/01/11 09:05:45;;;;;;;24.20;14.20;;;;;;;;;;4943802;28;20662;-73
2022/01/11 09:08:11;;;;;;;29.20;14.27;;;;;;;;;;4925076;29;20036;-73
2022/01/11 09:10:37;;;;;;;27.42;14.25;;;;;;;;;;4953975;28;20580;-71
2022/01/11 09:13:03;;;;;;;28.73;14.95;;;;;;;;;;4939450;28;20118;-73
2022/01/11 09:15:32;;;;;;;29.15;15.25;;;;;;;;;;4953504;28;20036;-71
2022/01/11 09:18:00;;;;;;;30.42;15.50;;;;;;;;;;4910020;29;20106;-72
2022/01/11 09:20:26;;;;;;;31.48;15.07;;;;;;;;;;4927904;29;20036;-73
2022/01/11 09:22:53;;;;;;;28.05;15.38;;;;;;;;;;4954214;28;20035;-71
2022/01/11 09:25:23;;;;;;;35.05;17.00;;;;;;;;;;4948496;28;20031;-72
2022/01/11 09:27:54;;;;;;;22.55;13.45;;;;;;;;;;4928071;29;20046;-70
2022/01/11 09:30:22;;;;;;;35.58;15.30;;;;;;;;;;4927392;29;20043;-72
2022/01/11 09:32:50;;;;;;;31.98;16.02;;;;;;;;;;4946901;28;20040;-71
2022/01/11 09:35:17;;;;;;;31.95;16.08;;;;;;;;;;4934453;28;20567;-71
2022/01/11 09:37:46;;;;;;;21.60;12.13;;;;;;;;;;4928412;29;20046;-71
2022/01/11 09:40:12;;;;;;;28.60;15.05;;;;;;;;;;4926183;29;20032;-71
2022/01/11 09:42:40;;;;;;;33.53;16.65;;;;;;;;;;4937101;29;20046;-71
2022/01/11 09:45:10;;;;;;;32.53;15.07;;;;;;;;;;4928049;28;20170;-70
2022/01/11 09:47:42;;;;;;;25.90;14.15;;;;;;;;;;4928119;28;20081;-70
2022/01/11 09:50:11;;;;;;;25.40;13.93;;;;;;;;;;4954345;28;20035;-70
2022/01/11 09:52:43;;;;;;;26.50;13.68;;;;;;;;;;4934804;29;20437;-70
2022/01/11 09:55:12;;;;;;;26.67;14.18;;;;;;;;;;4953169;28;20035;-71
2022/01/11 09:57:41;;;;;;;27.40;13.80;;;;;;;;;;4956836;28;20024;-71
2022/01/11 10:00:26;;;;;;;32.05;16.45;;;;;;;;;;4941696;29;20043;-70
2022/01/11 10:03:05;;;;;;;30.42;12.93;;;;;;;;;;4941282;28;20036;-69
2022/01/11 10:05:47;;;;;;;28.10;13.98;;;;;;;;;;4934840;28;20072;-71
2022/01/11 10:08:27;;;;;;;25.17;13.68;;;;;;;;;;4937051;28;20995;-69
2022/01/11 10:10:57;;;;;;;29.70;14.98;;;;;;;;;;4951450;28;20043;-70
2022/01/11 10:13:40;;;;;;;30.73;15.70;;;;;;;;;;4928702;29;20032;-71
2022/01/11 10:16:19;;;;;;;27.65;13.73;;;;;;;;;;4934532;28;20042;-73
2022/01/11 10:18:45;;;;;;;23.80;12.90;;;;;;;;;;4926499;29;20102;-73
2022/01/11 10:21:34;;;;;;;28.15;13.80;;;;;;;;;;4927153;29;20500;-70
2022/01/11 10:24:32;;;;;;;24.23;13.23;;;;;;;;;;4923311;29;20036;-73
2022/01/11 10:27:06;;;;;;;30.27;14.65;;;;;;;;;;4950073;28;20039;-73
2022/01/11 10:29:37;;;;;;;;;;;;;;;;;;4935017;28;20035;-73
2022/01/11 10:32:18;;;;;;;19.45;11.10;;;;;;;;;;4924750;29;19975;-72
2022/01/11 10:34:48;;;;;;;30.33;14.35;;;;;;;;;;4950288;28;20116;-71
2022/01/11 10:37:29;;;;;;;34.70;16.63;;;;;;;;;;4926609;29;20062;-72
2022/01/11 10:40:15;;;;;;;24.13;13.32;;;;;;;;;;4948682;28;20047;-72
2022/01/11 10:42:46;;;;;;;24.95;13.02;;;;;;;;;;4955819;28;20439;-71
2022/01/11 10:45:15;;;;;;;24.13;13.35;;;;;;;;;;4928443;29;20143;-72
2022/01/11 10:47:47;;;;;;;19.77;12.43;;;;;;;;;;4949128;28;20097;-71
2022/01/11 10:50:29;;;;;;;25.67;14.45;;;;;;;;;;4948729;28;20126;-74
2022/01/11 10:52:58;;;;;;;24.65;13.05;;;;;;;;;;4935216;28;20043;-73
2022/01/11 10:55:29;;;;;;;22.70;12.70;;;;;;;;;;4940390;28;20084;-74
2022/01/11 10:58:00;;;;;;;30.67;16.17;;;;;;;;;;4957397;28;20039;-70
2022/01/11 11:00:29;;;;;;;23.52;13.68;;;;;;;;;;4911680;28;20046;-70
2022/01/11 11:03:03;;;;;;;19.35;11.85;;;;;;;;;;4945448;28;20059;-72
2022/01/11 11:05:45;;;;;;;15.75;9.32;;;;;;;;;;4946589;28;20724;-71
2022/01/11 11:08:22;;;;;;;20.85;10.80;;;;;;;;;;4944787;28;20027;-70
2022/01/11 11:10:57;;;;;;;18.67;9.93;;;;;;;;;;4945387;28;20035;-71
2022/01/11 11:13:35;;;;;;;20.73;12.13;;;;;;;;;;4955089;28;20431;-72
2022/01/11 11:16:14;;;;;;;19.23;11.30;;;;;;;;;;4954795;28;20125;-71
2022/01/11 11:18:53;;;;;;;18.90;10.45;;;;;;;;;;4937694;29;20038;-71
2022/01/11 11:21:37;;;;;;;17.73;11.02;;;;;;;;;;4936620;28;20046;-73
2022/01/11 11:24:03;;;;;;;20.38;11.55;;;;;;;;;;4938361;28;20050;-72
2022/01/11 11:26:33;;;;;;;21.23;12.48;;;;;;;;;;4944497;28;20039;-72
2022/01/11 11:28:59;;;;;;;18.83;11.73;;;;;;;;;;4944847;29;20078;-73
2022/01/11 11:31:25;;;;;;;21.33;12.18;;;;;;;;;;4929347;29;20031;-73
2022/01/11 11:33:51;;;;;;;21.42;12.07;;;;;;;;;;4944739;28;20043;-70
2022/01/11 11:36:18;;;;;;;17.73;10.40;;;;;;;;;;4946621;28;20618;-70
2022/01/11 11:38:50;;;;;;;19.45;11.43;;;;;;;;;;4939311;29;20043;-70
2022/01/11 11:41:17;;;;;;;21.40;11.02;;;;;;;;;;4942995;29;20391;-70
2022/01/11 11:43:42;;;;;;;21.08;11.23;;;;;;;;;;4960722;28;20049;-69
2022/01/11 11:46:08;;;;;;;19.55;11.07;;;;;;;;;;4937759;28;20749;-73
2022/01/11 11:48:33;;;;;;;15.10;9.68;;;;;;;;;;4940683;28;20034;-69
2022/01/11 11:51:03;;;;;;;15.52;9.90;;;;;;;;;;4938824;29;20382;-73
2022/01/11 11:53:34;;;;;;;13.27;9.18;;;;;;;;;;4946435;28;20039;-71
2022/01/11 11:56:17;;;;;;;14.27;9.37;;;;;;;;;;4927795;28;20028;-72
2022/01/11 11:58:48;;;;;;;15.50;8.90;;;;;;;;;;4946339;28;20285;-71
2022/01/11 12:01:42;;;;;;;18.40;10.93;;;;;;;;;;4959001;28;20042;-71
2022/01/11 12:04:12;;;;;;;16.40;10.15;;;;;;;;;;4936942;29;20404;-72
2022/01/11 12:06:38;;;;;;;13.75;8.07;;;;;;;;;;4943739;28;20412;-70
2022/01/11 12:09:10;;;;;;;11.65;8.38;;;;;;;;;;4944626;28;20492;-71
2022/01/11 12:11:42;;;;;;;;;;;;;;;;;;4930781;28;20063;-72
2022/01/11 12:14:08;;;;;;;17.30;8.23;;;;;;;;;;4948524;28;20337;-71
2022/01/11 12:16:39;;;;;;;12.25;8.23;;;;;;;;;;4956682;28;20122;-71
2022/01/11 12:19:34;;;;;;;11.60;6.85;;;;;;;;;;4954650;28;20074;-73
2022/01/11 12:22:06;;;;;;;9.30;6.63;;;;;;;;;;4937682;28;20045;-72
2022/01/11 12:24:40;;;;;;;14.95;8.38;;;;;;;;;;4936110;29;20039;-73
2022/01/11 12:27:09;;;;;;;11.32;7.60;;;;;;;;;;4929771;29;20063;-71
2022/01/11 12:29:34;;;;;;;14.93;8.38;;;;;;;;;;4935801;28;20139;-71
2022/01/11 12:32:03;;;;;;;10.18;6.78;;;;;;;;;;4932630;28;20040;-72
2022/01/11 12:34:47;;;;;;;9.50;6.75;;;;;;;;;;4934533;29;20031;-69
2022/01/11 12:37:39;;;;;;;13.07;8.02;;;;;;;;;;4944229;29;20039;-70
2022/01/11 12:40:12;;;;;;;10.35;7.15;;;;;;;;;;4940549;28;20551;-71
2022/01/11 12:42:50;;;;;;;12.50;8.32;;;;;;;;;;4931058;28;20050;-71
2022/01/11 12:47:47;;;;;;;12.18;8.52;;;;;;;;;;4929737;29;20054;-71
2022/01/11 12:50:18;;;;;;;10.93;7.20;;;;;;;;;;4943841;28;20035;-70
2022/01/11 12:52:45;;;;;;;12.23;7.90;;;;;;;;;;4936296;28;20043;-71
2022/01/11 12:55:12;;;;;;;11.05;7.63;;;;;;;;;;4945170;28;20094;-71
2022/01/11 12:57:38;;;;;;;9.88;6.97;;;;;;;;;;4944312;28;20036;-70
2022/01/11 13:00:13;;;;;;;10.13;7.82;;;;;;;;;;4941415;28;20035;-72
2022/01/11 13:02:39;;;;;;;11.52;7.78;;;;;;;;;;4940333;28;20062;-73
2022/01/11 13:05:12;;;;;;;12.43;8.57;;;;;;;;;;4938358;28;20090;-72
2022/01/11 13:07:40;;;;;;;11.32;8.07;;;;;;;;;;4929671;28;20044;-71
2022/01/11 13:10:24;;;;;;;13.52;8.48;;;;;;;;;;4928950;29;20043;-72
2022/01/11 13:12:55;;;;;;;13.93;8.35;;;;;;;;;;4949483;28;20094;-72
2022/01/11 13:15:35;;;;;;;9.70;7.20;;;;;;;;;;4933326;28;20072;-70
2022/01/11 13:18:10;;;;;;;17.60;10.73;;;;;;;;;;4944395;28;20039;-70
2022/01/11 13:20:57;;;;;;;12.88;8.02;;;;;;;;;;4926782;29;20042;-70
2022/01/11 13:23:40;;;;;;;13.07;8.90;;;;;;;;;;4940860;28;20050;-72
2022/01/11 13:26:11;;;;;;;11.27;7.65;;;;;;;;;;4941647;28;20039;-70
2022/01/11 13:28:44;;;;;;;11.35;6.53;;;;;;;;;;4934852;29;20110;-71
2022/01/11 13:31:17;;;;;;;10.50;7.68;;;;;;;;;;4938058;28;20524;-71
2022/01/11 13:33:48;;;;;;;10.40;7.85;;;;;;;;;;4938860;29;20071;-74
2022/01/11 13:36:16;;;;;;;11.70;8.45;;;;;;;;;;4941179;28;20039;-71
2022/01/11 13:38:48;;;;;;;14.98;9.30;;;;;;;;;;4944050;28;20034;-72
2022/01/11 13:41:14;;;;;;;10.48;8.13;;;;;;;;;;4942127;29;20034;-72
2022/01/11 13:43:46;;;;;;;13.05;7.97;;;;;;;;;;4925599;28;20764;-72
2022/01/11 13:46:21;;;;;;;12.77;7.80;;;;;;;;;;4940763;28;20071;-73
2022/01/11 13:48:48;;;;;;;10.18;7.40;;;;;;;;;;4937124;28;20057;-73
2022/01/11 13:51:15;;;;;;;9.32;7.32;;;;;;;;;;4958751;28;20047;-72
2022/01/11 13:53:42;;;;;;;11.63;7.57;;;;;;;;;;4930223;28;20047;-72
2022/01/11 13:56:13;;;;;;;11.65;7.15;;;;;;;;;;4929189;28;20042;-72
2022/01/11 13:58:48;;;;;;;9.63;7.50;;;;;;;;;;4937216;28;20170;-72
2022/01/11 14:01:15;;;;;;;12.05;8.25;;;;;;;;;;4937129;29;20126;-72
2022/01/11 14:03:41;;;;;;;13.57;8.00;;;;;;;;;;4941619;29;20042;-72
2022/01/11 14:06:16;;;;;;;11.98;6.90;;;;;;;;;;4927520;29;20527;-72
2022/01/11 14:08:45;;;;;;;10.10;7.25;;;;;;;;;;4941126;28;20035;-72
2022/01/11 14:11:14;;;;;;;13.23;7.65;;;;;;;;;;4940780;28;20043;-72
2022/01/11 14:13:41;;;;;;;12.10;8.13;;;;;;;;;;4928536;28;20058;-74
2022/01/11 14:16:14;;;;;;;27.73;12.00;;;;;;;;;;4940452;28;20034;-73
2022/01/11 14:19:08;;;;;;;11.27;7.25;;;;;;;;;;4925322;28;20050;-72
2022/01/11 14:21:53;;;;;;;10.82;6.50;;;;;;;;;;4922777;28;20044;-73
2022/01/11 14:24:20;;;;;;;8.88;6.90;;;;;;;;;;4940025;28;20075;-71
2022/01/11 14:26:46;;;;;;;12.98;7.25;;;;;;;;;;4924462;29;20123;-71
2022/01/11 14:29:22;;;;;;;12.20;6.63;;;;;;;;;;4923316;28;20057;-72
2022/01/11 14:32:20;;;;;;;11.35;6.75;;;;;;;;;;4932731;28;20031;-73
2022/01/11 14:35:02;;;;;;;9.07;6.30;;;;;;;;;;4897587;29;20063;-72
2022/01/11 14:37:29;;;;;;;;;;;;;;;;;;4928373;29;20424;-72
2022/01/11 14:39:56;;;;;;;11.30;6.20;;;;;;;;;;4941185;28;19914;-73
2022/01/11 14:42:31;;;;;;;12.32;7.47;;;;;;;;;;4939718;28;20082;-73